Time;durP1;ratioP1;P1;durP2;ratioP2;P2;SDS_P1;SDS_P2;PMS_P1;PMS_P2;Temp;Humidity;BMP_temperature;BMP_pressure;BME280_temperature;BME280_humidity;BME280_pressure;Samples;Min_cycle;Max_cycle;Signal;HPM_P1;HPM_P2
2022/01/06 00:00:40;;;;;;;5.78;3.83;;;;;;;1.49;92.68;97580.97;1760868;79;21337;-71
2022/01/06 00:03:07;;;;;;;5.17;3.12;;;;;;;1.51;92.69;97580.43;1737985;81;20941;-71
2022/01/06 00:05:33;;;;;;;9.38;4.00;;;;;;;1.46;92.76;97581.94;1730822;81;20985;-71
2022/01/06 00:08:01;;;;;;;5.22;3.42;;;;;;;1.51;92.70;97585.15;1761485;79;21620;-71
2022/01/06 00:10:30;;;;;;;6.25;3.40;;;;;;;1.51;92.75;97581.29;1763703;79;21149;-71
2022/01/06 00:18:15;;;;;;;6.70;3.58;;;;;;;1.61;92.84;97584.73;1805785;79;20942;-70
2022/01/06 00:23:33;;;;;;;6.20;3.87;;;;;;;1.63;92.90;97593.22;1765825;79;21051;-70
2022/01/06 00:25:59;;;;;;;5.15;3.62;;;;;;;1.62;92.90;97596.67;1786818;79;21264;-70
2022/01/06 00:28:27;;;;;;;4.97;3.47;;;;;;;1.66;92.78;97600.80;1800703;79;21001;-70
2022/01/06 00:30:54;;;;;;;5.35;2.92;;;;;;;1.69;92.83;97612.23;1805285;79;20988;-70
2022/01/06 00:33:22;;;;;;;4.62;3.40;;;;;;;1.74;92.80;97609.00;1766116;81;21068;-70
2022/01/06 00:35:48;;;;;;;3.62;3.12;;;;;;;1.78;92.81;97603.62;1769996;80;20907;-70
2022/01/06 00:38:15;;;;;;;6.83;3.50;;;;;;;1.82;92.80;97606.91;1783368;79;21906;-70
2022/01/06 00:40:41;;;;;;;6.67;3.25;;;;;;;1.83;92.77;97607.28;1801047;79;21591;-70
2022/01/06 00:43:09;;;;;;;7.58;3.60;;;;;;;1.85;92.76;97608.48;1806022;79;20992;-70
2022/01/06 00:45:36;;;;;;;;;;;;;;;1.88;92.80;97606.63;1804301;79;21003;-69
2022/01/06 00:48:10;;;;;;;5.20;3.77;;;;;;;1.91;92.80;97603.91;1799837;79;20170;-70
2022/01/06 00:50:40;;;;;;;4.05;2.85;;;;;;;1.93;92.82;97611.55;1775226;79;21077;-70
2022/01/06 00:53:08;;;;;;;4.97;3.55;;;;;;;1.93;92.81;97617.55;1805459;79;21520;-70
2022/01/06 00:55:36;;;;;;;7.62;3.52;;;;;;;1.92;92.75;97615.86;1805940;79;21674;-70
2022/01/06 00:58:03;;;;;;;4.55;3.08;;;;;;;1.91;92.81;97619.81;1766873;79;21082;-70
2022/01/06 01:00:39;;;;;;;6.75;3.58;;;;;;;1.90;92.82;97625.38;1783236;79;21036;-70
2022/01/06 01:03:16;;;;;;;4.35;3.15;;;;;;;1.91;92.85;97628.36;1766100;81;21558;-70
2022/01/06 01:05:45;;;;;;;3.67;2.83;;;;;;;1.89;92.89;97622.90;1799404;79;21024;-70
2022/01/06 01:08:12;;;;;;;7.40;3.37;;;;;;;1.91;92.88;97625.78;1778582;79;21496;-70
2022/01/06 01:10:40;;;;;;;6.28;3.10;;;;;;;1.91;92.86;97634.80;1772021;79;22259;-71
2022/01/06 01:13:12;;;;;;;4.10;3.22;;;;;;;1.89;92.80;97632.73;1743549;82;21004;-70
2022/01/06 01:15:52;;;;;;;4.05;2.92;;;;;;;1.88;92.80;97642.66;1787121;80;21209;-71
2022/01/06 01:18:19;;;;;;;;;;;;;;;1.88;92.81;97651.66;1752216;80;21016;-70
2022/01/06 01:20:45;;;;;;;3.67;2.72;;;;;;;1.86;92.78;97653.92;1770222;80;20169;-71
2022/01/06 01:23:12;;;;;;;3.70;2.92;;;;;;;1.80;92.76;97653.74;1749207;80;25040;-70
2022/01/06 01:25:39;;;;;;;3.50;2.90;;;;;;;1.75;92.95;97663.41;1773228;80;20886;-70
2022/01/06 01:28:06;;;;;;;4.92;3.02;;;;;;;1.78;92.80;97664.55;1788068;80;21878;-70
2022/01/06 01:30:40;;;;;;;5.15;2.45;;;;;;;1.75;92.82;97665.52;1788475;80;21485;-70
2022/01/06 01:33:01;;;;;;;3.45;2.10;;;;;;;1.68;92.90;97669.70;1743167;81;20974;-70
2022/01/06 01:35:31;;;;;;;3.00;2.27;;;;;;;1.69;92.72;97672.69;1762279;79;21000;-70
2022/01/06 01:37:57;;;;;;;3.83;2.27;;;;;;;1.62;92.67;97675.95;1759715;80;21263;-71
2022/01/06 01:40:24;;;;;;;2.10;1.90;;;;;;;1.56;92.67;97697.64;1779300;80;21051;-70
2022/01/06 01:42:50;;;;;;;1.87;1.70;;;;;;;1.49;92.83;97696.25;1774571;80;21013;-70
2022/01/06 01:45:17;;;;;;;2.13;1.93;;;;;;;1.44;92.85;97704.61;1759270;80;21541;-70
2022/01/06 01:47:45;;;;;;;3.52;1.77;;;;;;;1.37;93.26;97708.33;1759193;80;21678;-70
2022/01/06 01:50:16;;;;;;;;;;;;;;;1.29;93.79;97715.55;1774931;80;20986;-70
2022/01/06 01:52:49;;;;;;;2.25;1.60;;;;;;;1.22;93.68;97711.55;1760115;80;21082;-70
2022/01/06 01:55:23;;;;;;;2.27;1.60;;;;;;;1.20;93.57;97727.48;1776530;80;20985;-69
2022/01/06 01:57:51;;;;;;;4.35;2.10;;;;;;;1.06;93.85;97736.59;1748684;80;21004;-70
2022/01/06 02:00:21;;;;;;;2.37;1.60;;;;;;;0.92;94.20;97735.03;1746149;80;20966;-70
2022/01/06 02:02:48;;;;;;;1.30;1.15;;;;;;;0.79;94.13;97744.14;1748597;80;21026;-70
2022/01/06 02:05:14;;;;;;;1.75;1.37;;;;;;;0.63;94.60;97749.86;1745874;79;21085;-69
2022/01/06 02:07:41;;;;;;;1.73;1.43;;;;;;;0.57;94.28;97762.94;1765094;80;21008;-69
2022/01/06 02:10:12;;;;;;;3.17;1.52;;;;;;;0.54;94.06;97765.63;1770220;80;21075;-69
2022/01/06 02:12:41;;;;;;;3.00;1.30;;;;;;;0.51;94.38;97774.73;1790354;79;20954;-69
2022/01/06 02:15:10;;;;;;;1.72;1.12;;;;;;;0.46;94.26;97776.64;1790841;79;20942;-70
2022/01/06 02:17:38;;;;;;;2.75;1.02;;;;;;;0.40;94.37;97778.16;1797867;79;21726;-70
2022/01/06 02:20:12;;;;;;;1.15;0.90;;;;;;;0.31;94.33;97783.61;1790066;79;21040;-70
2022/01/06 02:22:39;;;;;;;1.20;0.80;;;;;;;0.33;94.62;97793.39;1785988;79;20945;-69
2022/01/06 02:25:20;;;;;;;0.93;0.85;;;;;;;0.27;94.57;97787.20;1793684;79;21038;-70
2022/01/06 02:27:50;;;;;;;0.60;0.40;;;;;;;0.20;94.51;97805.39;1796392;79;20988;-70
2022/01/06 02:30:17;;;;;;;1.85;0.98;;;;;;;0.12;95.12;97809.97;1782397;79;21067;-70
2022/01/06 02:32:45;;;;;;;1.50;0.88;;;;;;;0.05;95.30;97821.33;1782711;79;21502;-70
2022/01/06 02:35:21;;;;;;;1.00;0.80;;;;;;;-0.01;95.15;97831.81;1784640;79;20963;-70
2022/01/06 02:37:54;;;;;;;2.12;0.90;;;;;;;-0.05;95.22;97836.67;1774617;79;21191;-70
2022/01/06 02:40:24;;;;;;;1.75;0.80;;;;;;;-0.10;94.96;97832.13;1778671;79;20990;-70
2022/01/06 02:42:58;;;;;;;0.80;0.60;;;;;;;-0.09;95.11;97837.64;1793236;79;21069;-68
2022/01/06 02:45:28;;;;;;;3.70;1.00;;;;;;;-0.11;95.49;97840.70;1764335;79;21497;-70
2022/01/06 02:47:56;;;;;;;1.40;0.78;;;;;;;-0.16;95.88;97838.77;1783705;79;21057;-70
2022/01/06 02:50:28;;;;;;;0.85;0.70;;;;;;;-0.18;95.38;97840.53;1757883;79;20992;-70
2022/01/06 02:52:54;;;;;;;2.40;0.70;;;;;;;-0.18;95.32;97847.78;1781904;79;20985;-70
2022/01/06 02:55:21;;;;;;;3.72;0.70;;;;;;;-0.21;95.36;97853.02;1793026;79;21119;-70
2022/01/06 02:57:48;;;;;;;0.60;0.60;;;;;;;-0.21;95.72;97862.45;1798356;79;21064;-70
2022/01/06 03:00:17;;;;;;;2.23;0.80;;;;;;;-0.19;95.62;97858.11;1770934;81;21013;-70
2022/01/06 03:02:46;;;;;;;1.27;0.60;;;;;;;-0.17;95.51;97858.87;1802327;79;21021;-70
2022/01/06 03:05:15;;;;;;;2.00;1.00;;;;;;;-0.17;95.31;97858.87;1787804;79;21107;-70
2022/01/06 03:07:47;;;;;;;2.90;0.78;;;;;;;-0.16;95.19;97856.72;1795057;79;21767;-70
2022/01/06 03:10:16;;;;;;;1.57;0.68;;;;;;;-0.18;95.51;97852.08;1763574;81;20950;-70
2022/01/06 03:12:45;;;;;;;1.80;0.68;;;;;;;-0.20;95.43;97859.81;1776040;79;21064;-71
2022/01/06 03:15:16;;;;;;;2.30;0.90;;;;;;;-0.20;95.20;97861.55;1772528;80;21601;-71
2022/01/06 03:17:46;;;;;;;1.15;0.72;;;;;;;-0.21;95.21;97858.14;1773556;79;20997;-71
2022/01/06 03:20:15;;;;;;;1.62;0.75;;;;;;;-0.21;95.15;97859.87;1772708;79;21135;-71
2022/01/06 03:22:48;;;;;;;2.65;0.72;;;;;;;-0.21;95.09;97865.84;1761964;80;20946;-71
2022/01/06 03:25:15;;;;;;;3.85;0.68;;;;;;;-0.17;95.08;97870.41;1789387;79;20985;-71
2022/01/06 03:27:43;;;;;;;1.30;0.70;;;;;;;-0.15;95.11;97876.34;1785934;79;21541;-71
2022/01/06 03:30:14;;;;;;;3.72;0.82;;;;;;;-0.20;95.11;97865.39;1799357;79;21009;-71
2022/01/06 03:32:41;;;;;;;2.50;0.80;;;;;;;-0.11;95.02;97883.03;1781953;79;21093;-71
2022/01/06 03:35:10;;;;;;;1.52;1.15;;;;;;;-0.09;95.06;97887.67;1788678;79;20988;-72
2022/01/06 03:37:37;;;;;;;4.83;0.95;;;;;;;-0.07;95.06;97878.20;1750524;80;21005;-71
2022/01/06 03:40:06;;;;;;;1.70;0.57;;;;;;;-0.04;95.09;97883.23;1781616;79;21551;-72
2022/01/06 03:42:34;;;;;;;2.10;0.68;;;;;;;-0.05;95.07;97890.55;1779498;79;20941;-71
2022/01/06 03:45:05;;;;;;;2.15;0.80;;;;;;;-0.03;95.05;97899.01;1781778;79;21071;-71
2022/01/06 03:47:35;;;;;;;1.70;0.75;;;;;;;0.02;95.14;97908.67;1760405;81;20974;-72
2022/01/06 03:50:01;;;;;;;3.42;0.68;;;;;;;0.02;95.01;97912.52;1770238;79;21072;-72
2022/01/06 03:52:28;;;;;;;4.10;0.80;;;;;;;-0.08;94.77;97917.59;1777730;79;21485;-72
2022/01/06 03:54:55;;;;;;;1.90;0.53;;;;;;;-0.14;94.79;97916.48;1777270;79;21578;-71
2022/01/06 03:57:21;;;;;;;0.98;0.47;;;;;;;-0.27;94.98;97916.06;1779906;79;21057;-72
2022/01/06 03:59:48;;;;;;;0.37;0.20;;;;;;;-0.34;95.40;97928.67;1781115;79;21173;-72
2022/01/06 04:02:14;;;;;;;0.65;0.20;;;;;;;-0.44;95.91;97935.84;1781107;79;21049;-72
2022/01/06 04:04:41;;;;;;;1.98;0.45;;;;;;;-0.54;95.57;97939.56;1771384;79;21012;-71
2022/01/06 04:07:07;;;;;;;0.40;0.40;;;;;;;-0.63;95.44;97938.58;1765261;81;20981;-72
2022/01/06 04:09:34;;;;;;;0.37;0.30;;;;;;;-0.72;95.37;97944.38;1780318;79;21046;-72
2022/01/06 04:12:01;;;;;;;0.45;0.30;;;;;;;-0.68;95.57;97944.66;1780633;79;21641;-71
2022/01/06 04:14:28;;;;;;;0.40;0.23;;;;;;;-0.68;95.73;97963.89;1785051;79;20977;-72
2022/01/06 04:16:59;;;;;;;0.78;0.35;;;;;;;-0.68;95.91;97953.63;1793984;79;21053;-72
2022/01/06 04:19:23;;;;;;;1.75;0.40;;;;;;;-0.69;95.83;97949.85;1785624;79;20965;-72
2022/01/06 04:21:49;;;;;;;1.25;0.40;;;;;;;-0.66;95.75;97954.88;1778478;79;21075;-72
2022/01/06 04:24:16;;;;;;;0.65;0.40;;;;;;;-0.62;95.62;97959.47;1757707;79;21065;-72
2022/01/06 04:26:42;;;;;;;1.02;0.50;;;;;;;-0.60;95.64;97962.83;1770573;80;21106;-72
2022/01/06 04:29:09;;;;;;;0.53;0.33;;;;;;;-0.56;95.37;97960.55;1758116;79;20997;-72
2022/01/06 04:31:38;;;;;;;0.40;0.30;;;;;;;-0.48;95.41;97962.44;1789229;78;20992;-72
2022/01/06 04:34:04;;;;;;;2.08;0.72;;;;;;;-0.45;95.25;97975.16;1776722;79;21102;-73
2022/01/06 04:36:31;;;;;;;2.63;0.60;;;;;;;-0.42;95.17;97985.77;1749617;80;21012;-72
2022/01/06 04:38:58;;;;;;;0.30;0.30;;;;;;;-0.43;95.11;97997.77;1752006;81;21545;-72
2022/01/06 04:41:24;;;;;;;0.42;0.40;;;;;;;-0.50;95.09;97990.71;1754972;79;21020;-72
2022/01/06 04:43:51;;;;;;;0.40;0.30;;;;;;;-0.58;95.25;98007.21;1778177;79;20980;-72
2022/01/06 04:46:19;;;;;;;0.33;0.30;;;;;;;-0.60;95.17;98017.94;1778850;79;21065;-72
2022/01/06 04:48:45;;;;;;;0.50;0.50;;;;;;;-0.74;95.53;98020.45;1780865;79;21027;-72
2022/01/06 04:51:12;;;;;;;0.60;0.30;;;;;;;-0.83;95.18;98014.77;1786929;79;21025;-72
2022/01/06 04:53:39;;;;;;;0.40;0.33;;;;;;;-0.87;95.25;98020.41;1800391;79;20961;-72
2022/01/06 04:56:05;;;;;;;3.35;0.60;;;;;;;-0.93;95.45;98022.70;1796262;79;22007;-73
2022/01/06 04:58:32;;;;;;;1.72;0.70;;;;;;;-0.96;95.38;98024.52;1783406;79;21533;-72
2022/01/06 05:00:59;;;;;;;0.95;0.47;;;;;;;-0.97;95.29;98025.41;1785233;79;21062;-72
2022/01/06 05:03:26;;;;;;;1.37;0.60;;;;;;;-0.99;95.24;98033.57;1764739;80;21060;-72
2022/01/06 05:05:52;;;;;;;1.27;0.60;;;;;;;-1.03;95.49;98040.95;1786233;79;20917;-72
2022/01/06 05:08:19;;;;;;;0.70;0.50;;;;;;;-1.06;95.26;98041.05;1777904;79;21712;-72
2022/01/06 05:10:59;;;;;;;1.55;0.80;;;;;;;-1.07;95.58;98050.87;1780471;79;21548;-72
2022/01/06 05:13:14;;;;;;;1.00;0.50;;;;;;;-1.10;95.56;98056.08;1766195;79;21341;-72
2022/01/06 05:15:41;;;;;;;1.15;0.55;;;;;;;-1.12;95.40;98059.98;1775043;79;20998;-73
2022/01/06 05:18:07;;;;;;;1.55;0.70;;;;;;;-1.13;95.58;98074.48;1765991;79;21717;-72
2022/01/06 05:20:37;;;;;;;0.77;0.60;;;;;;;-1.17;95.86;98084.42;1756769;79;21017;-72
2022/01/06 05:23:02;;;;;;;0.80;0.40;;;;;;;-1.17;95.86;98084.42;1768743;79;21583;-72
2022/01/06 05:25:30;;;;;;;1.50;0.62;;;;;;;-1.22;95.63;98088.82;1759852;81;21044;-72
2022/01/06 05:27:57;;;;;;;0.40;0.30;;;;;;;-1.31;95.74;98107.44;1746499;79;20993;-72
2022/01/06 05:30:24;;;;;;;0.90;0.60;;;;;;;-1.48;96.02;98106.13;1755543;80;21057;-72
2022/01/06 05:32:51;;;;;;;0.40;0.40;;;;;;;-1.54;95.66;98106.28;1768241;80;21005;-72
2022/01/06 05:35:23;;;;;;;1.35;0.50;;;;;;;-1.62;95.71;98107.74;1757385;80;21081;-71
2022/01/06 05:37:50;;;;;;;1.47;0.62;;;;;;;-1.64;95.66;98108.21;1772092;79;20963;-71
2022/01/06 05:40:16;;;;;;;1.63;0.60;;;;;;;-1.65;95.73;98108.27;1769605;80;20950;-71
2022/01/06 05:42:43;;;;;;;1.20;0.78;;;;;;;-1.68;95.68;98119.41;1788817;79;20997;-71
2022/01/06 05:45:12;;;;;;;1.87;0.67;;;;;;;-1.67;95.65;98118.52;1772298;79;21602;-70
2022/01/06 05:47:38;;;;;;;1.77;0.80;;;;;;;-1.67;95.69;98136.44;1774410;79;21942;-70
2022/01/06 05:50:06;;;;;;;0.87;0.63;;;;;;;-1.67;95.61;98139.00;1780747;78;21115;-70
2022/01/06 05:52:33;;;;;;;2.45;0.70;;;;;;;-1.71;95.66;98139.96;1736946;80;21144;-70
2022/01/06 05:55:00;;;;;;;1.27;0.70;;;;;;;-1.71;95.57;98148.91;1799100;79;21049;-69
2022/01/06 05:57:27;;;;;;;0.45;0.40;;;;;;;-1.71;95.42;98151.47;1799719;78;21574;-69
2022/01/06 05:59:53;;;;;;;1.77;0.60;;;;;;;-1.76;95.47;98157.13;1761361;79;21041;-69
2022/01/06 06:02:20;;;;;;;0.90;0.50;;;;;;;-1.81;95.51;98154.66;1777985;78;21089;-68
2022/01/06 06:04:46;;;;;;;0.60;0.40;;;;;;;-1.77;95.63;98155.42;1761989;79;21516;-64
2022/01/06 06:07:13;;;;;;;3.75;0.70;;;;;;;-1.85;95.78;98162.43;1790680;78;21052;-68
2022/01/06 06:09:40;;;;;;;1.40;0.60;;;;;;;-1.95;96.00;98181.44;1790551;79;20982;-68
2022/01/06 06:12:08;;;;;;;1.33;0.60;;;;;;;-1.98;96.13;98191.73;1787305;79;22324;-68
2022/01/06 06:14:36;;;;;;;1.15;0.50;;;;;;;-2.01;96.08;98194.36;1774132;80;21109;-69
2022/01/06 06:17:03;;;;;;;2.67;0.45;;;;;;;-2.08;96.01;98203.41;1763342;79;22396;-68
2022/01/06 06:19:30;;;;;;;2.00;0.50;;;;;;;-2.16;96.23;98198.89;1751857;79;21020;-68
2022/01/06 06:21:56;;;;;;;1.35;0.40;;;;;;;-2.22;96.31;98206.69;1759573;79;20984;-69
2022/01/06 06:24:24;;;;;;;0.78;0.57;;;;;;;-2.18;96.00;98208.33;1768039;80;21715;-69
2022/01/06 06:26:50;;;;;;;0.57;0.57;;;;;;;-2.28;96.08;98224.72;1764926;80;21002;-68
2022/01/06 06:29:18;;;;;;;0.90;0.45;;;;;;;-2.25;95.98;98222.09;1761257;80;20985;-69
2022/01/06 06:31:44;;;;;;;2.95;0.50;;;;;;;-2.27;95.87;98223.83;1761056;80;21001;-69
2022/01/06 06:34:11;;;;;;;1.42;0.68;;;;;;;-2.39;96.01;98221.53;1763528;80;21051;-68
2022/01/06 06:36:38;;;;;;;1.07;0.60;;;;;;;-2.40;96.02;98237.31;1758440;80;22210;-68
2022/01/06 06:39:05;;;;;;;1.82;0.60;;;;;;;-2.40;96.09;98250.53;1760158;80;21259;-68
2022/01/06 06:41:32;;;;;;;2.52;0.68;;;;;;;-2.40;95.79;98255.64;1757624;80;20954;-68
2022/01/06 06:43:59;;;;;;;2.25;0.70;;;;;;;-2.45;95.56;98263.38;1716217;82;21092;-68
2022/01/06 06:46:26;;;;;;;0.53;0.50;;;;;;;-2.43;95.54;98262.93;1748999;80;21540;-68
2022/01/06 06:48:52;;;;;;;1.47;0.82;;;;;;;-2.45;95.57;98261.27;1748897;80;21075;-68
2022/01/06 06:51:22;;;;;;;1.25;0.50;;;;;;;-2.49;95.69;98272.83;1724029;80;21129;-69
2022/01/06 06:53:49;;;;;;;0.60;0.50;;;;;;;-2.50;95.82;98276.67;1716393;82;21778;-68
2022/01/06 06:56:15;;;;;;;1.07;0.50;;;;;;;-2.49;95.67;98288.16;1738756;81;21013;-69
2022/01/06 06:58:42;;;;;;;1.37;0.53;;;;;;;-2.52;95.58;98308.67;1771012;79;20916;-68
2022/01/06 07:01:09;;;;;;;1.43;0.60;;;;;;;-2.68;95.78;98314.90;1766008;80;21059;-69
2022/01/06 07:03:35;;;;;;;0.72;0.68;;;;;;;-2.63;95.89;98313.12;1772474;80;21012;-69
2022/01/06 07:06:03;;;;;;;1.90;0.83;;;;;;;-2.63;95.73;98324.62;1767831;80;21054;-69
2022/01/06 07:08:30;;;;;;;0.62;0.53;;;;;;;-2.71;95.72;98327.73;1745372;79;27653;-68
2022/01/06 07:10:57;;;;;;;2.50;0.50;;;;;;;-2.67;95.66;98326.80;1773361;80;20993;-69
2022/01/06 07:13:23;;;;;;;0.85;0.50;;;;;;;-2.70;95.46;98337.06;1730573;81;23920;-69
2022/01/06 07:15:50;;;;;;;0.65;0.40;;;;;;;-2.76;95.20;98341.00;1759145;80;21041;-70
2022/01/06 07:18:17;;;;;;;0.78;0.60;;;;;;;-2.77;95.18;98343.16;1767061;80;21041;-69
2022/01/06 07:20:44;;;;;;;1.72;0.78;;;;;;;-2.66;95.33;98351.50;1774154;80;21018;-67
2022/01/06 07:23:12;;;;;;;1.80;1.10;;;;;;;-2.58;95.26;98354.74;1773457;79;21635;-68
2022/01/06 07:25:38;;;;;;;;;;;;;;;-2.57;95.11;98359.00;1773649;80;21805;-68
2022/01/06 07:28:05;;;;;;;2.65;0.70;;;;;;;-2.70;95.11;98362.62;1771556;80;20301;-68
2022/01/06 07:30:33;;;;;;;0.47;0.30;;;;;;;-2.74;95.04;98359.72;1770790;80;20902;-67
2022/01/06 07:33:01;;;;;;;2.17;1.12;;;;;;;-2.72;94.87;98365.22;1774043;80;21001;-68
2022/01/06 07:35:30;;;;;;;2.50;0.90;;;;;;;-2.76;94.88;98375.49;1767905;80;21009;-68
2022/01/06 07:37:57;;;;;;;1.20;0.72;;;;;;;-2.77;95.05;98374.66;1771577;79;21895;-67
2022/01/06 07:40:24;;;;;;;1.30;0.80;;;;;;;-2.79;95.09;98378.09;1763921;79;21485;-69
2022/01/06 07:42:52;;;;;;;1.42;0.70;;;;;;;-2.74;94.83;98372.05;1766945;79;21149;-69
2022/01/06 07:45:19;;;;;;;1.10;0.60;;;;;;;-2.82;94.93;98380.70;1759679;79;20950;-68
2022/01/06 07:47:57;;;;;;;2.30;0.82;;;;;;;-2.75;94.31;98383.11;1766708;80;21005;-69
2022/01/06 07:50:28;;;;;;;3.22;0.82;;;;;;;-2.78;94.04;98391.27;1764869;79;21121;-68
2022/01/06 07:52:55;;;;;;;1.85;1.00;;;;;;;-2.72;94.20;98387.34;1792614;79;21618;-67
2022/01/06 07:55:21;;;;;;;2.98;0.93;;;;;;;-2.72;94.40;98402.27;1781455;79;20995;-67
2022/01/06 07:57:53;;;;;;;4.33;1.25;;;;;;;-2.68;94.11;98401.77;1762587;79;21071;-68
2022/01/06 08:00:22;;;;;;;1.80;1.00;;;;;;;-2.64;94.09;98403.40;1771304;79;21073;-69
2022/01/06 08:02:48;;;;;;;1.52;1.00;;;;;;;-2.67;93.54;98397.06;1735054;80;21080;-69
2022/01/06 08:05:15;;;;;;;2.92;1.20;;;;;;;-2.72;93.03;98402.67;1761141;80;20978;-70
2022/01/06 08:07:43;;;;;;;2.23;1.27;;;;;;;-2.74;93.11;98395.05;1767814;79;20901;-70
2022/01/06 08:10:10;;;;;;;5.37;1.90;;;;;;;-2.73;93.26;98397.16;1790586;79;21750;-71
2022/01/06 08:12:39;;;;;;;3.42;2.42;;;;;;;-2.73;93.37;98408.66;1793149;79;21008;-70
2022/01/06 08:15:07;;;;;;;2.40;1.60;;;;;;;-2.74;92.79;98413.37;1728756;80;21107;-71
2022/01/06 08:17:36;;;;;;;3.55;1.70;;;;;;;-2.68;93.19;98426.05;1787618;79;21067;-68
2022/01/06 08:20:07;;;;;;;2.10;1.35;;;;;;;-2.70;92.55;98420.94;1789306;79;21036;-68
2022/01/06 08:22:35;;;;;;;1.95;1.70;;;;;;;-2.66;93.16;98429.84;1753326;79;21056;-68
2022/01/06 08:25:10;;;;;;;2.60;1.45;;;;;;;-2.65;93.08;98429.83;1792734;79;21681;-68
2022/01/06 08:27:38;;;;;;;3.20;1.62;;;;;;;-2.63;93.23;98437.05;1745367;80;21810;-69
2022/01/06 08:30:08;;;;;;;6.22;1.60;;;;;;;-2.59;93.08;98442.51;1769233;80;20996;-69
2022/01/06 08:32:41;;;;;;;2.90;1.40;;;;;;;-2.57;92.87;98453.56;1799609;79;21029;-68
2022/01/06 08:35:11;;;;;;;1.77;0.95;;;;;;;-2.59;92.71;98462.11;1768931;79;21578;-68
2022/01/06 08:37:37;;;;;;;2.47;1.02;;;;;;;-2.61;92.20;98464.67;1792350;79;20996;-69
2022/01/06 08:40:06;;;;;;;0.93;0.80;;;;;;;-2.65;92.11;98475.83;1789884;78;21833;-70
2022/01/06 08:42:33;;;;;;;1.72;1.05;;;;;;;-2.63;92.11;98483.05;1782244;79;20977;-70
2022/01/06 08:45:12;;;;;;;1.20;0.80;;;;;;;-2.60;92.43;98480.44;1781320;79;20996;-70
2022/01/06 08:47:40;;;;;;;1.82;0.90;;;;;;;-2.59;91.91;98493.63;1732098;81;21083;-69
2022/01/06 08:50:13;;;;;;;2.42;1.05;;;;;;;-2.58;91.85;98494.02;1758782;79;21019;-70
2022/01/06 08:52:40;;;;;;;1.87;1.00;;;;;;;-2.48;92.43;98500.70;1786947;79;21103;-69
2022/01/06 08:55:08;;;;;;;2.20;1.35;;;;;;;-2.48;91.62;98507.09;1784340;80;21016;-69
2022/01/06 08:57:37;;;;;;;1.70;1.02;;;;;;;-2.47;91.76;98506.21;1757476;80;21016;-67
2022/01/06 09:00:08;;;;;;;4.83;0.80;;;;;;;-2.47;91.66;98511.33;1764676;79;21599;-68
2022/01/06 09:02:35;;;;;;;1.37;1.00;;;;;;;-2.42;91.50;98510.44;1751225;79;21024;-70
2022/01/06 09:05:06;;;;;;;1.35;0.72;;;;;;;-2.50;91.26;98524.16;1739390;79;21070;-68
2022/01/06 09:07:39;;;;;;;3.42;1.20;;;;;;;-2.55;91.62;98533.62;1769096;79;21683;-68
2022/01/06 09:10:08;;;;;;;2.17;1.05;;;;;;;-2.53;92.08;98534.42;1790740;79;21001;-68
2022/01/06 09:12:39;;;;;;;3.60;1.05;;;;;;;-2.44;92.38;98537.72;1779188;79;21670;-68
2022/01/06 09:15:09;;;;;;;1.75;1.12;;;;;;;-2.38;91.96;98555.52;1716627;82;21521;-68
2022/01/06 09:17:36;;;;;;;1.40;1.00;;;;;;;-2.41;91.69;98553.02;1730625;81;21902;-68
2022/01/06 09:20:19;;;;;;;2.58;1.45;;;;;;;-2.32;92.40;98554.19;1756636;81;21075;-67
2022/01/06 09:22:51;;;;;;;3.17;0.90;;;;;;;-2.17;92.72;98562.90;1750985;79;20946;-68
2022/01/06 09:25:22;;;;;;;1.85;1.02;;;;;;;-2.12;92.13;98564.96;1782261;79;21076;-66
2022/01/06 09:28:01;;;;;;;2.10;1.17;;;;;;;-2.07;92.50;98558.07;1777012;79;21104;-66
2022/01/06 09:30:29;;;;;;;5.95;1.32;;;;;;;-2.04;92.12;98566.13;1759233;79;21062;-67
2022/01/06 09:33:06;;;;;;;5.25;2.20;;;;;;;-1.94;92.51;98569.38;1749120;81;21076;-66
2022/01/06 09:35:54;;;;;;;4.25;2.37;;;;;;;-1.80;92.67;98576.41;1765250;79;21063;-67
2022/01/06 09:38:26;;;;;;;3.72;1.45;;;;;;;-1.71;92.55;98576.28;1685733;83;21543;-67
2022/01/06 09:40:51;;;;;;;1.52;0.98;;;;;;;-1.58;92.58;98576.91;1738882;81;21527;-66
2022/01/06 09:43:30;;;;;;;1.75;1.20;;;;;;;-1.51;92.25;98586.59;1744990;81;20988;-67
2022/01/06 09:49:00;;;;;;;1.30;0.90;;;;;;;-1.38;92.11;98577.84;1753379;81;21056;-69
2022/01/06 09:51:30;;;;;;;1.62;1.00;;;;;;;-1.25;92.28;98581.05;1746784;80;21568;-68
2022/01/06 09:53:59;;;;;;;2.20;1.20;;;;;;;-1.15;92.19;98584.70;1762792;79;20936;-69
2022/01/06 09:56:29;;;;;;;1.37;1.07;;;;;;;-1.18;91.83;98586.01;1764357;79;21528;-69
2022/01/06 09:59:03;;;;;;;3.87;1.15;;;;;;;-1.35;91.40;98582.91;1758139;79;20948;-69
2022/01/06 10:01:34;;;;;;;1.27;1.00;;;;;;;-1.69;91.09;98589.88;1759153;80;21543;-69
2022/01/06 10:04:28;;;;;;;;;;;;;;;;;;;;;
2022/01/06 10:06:35;;;;;;;2.80;1.80;;;;;;;-1.80;92.14;98595.59;1753134;79;21624;-68
2022/01/06 10:09:15;;;;;;;3.85;2.52;;;;;;;-1.82;92.51;98593.48;1759662;79;21178;-68
2022/01/06 10:13:35;;;;;;;2.95;1.50;;;;;;;-1.61;93.02;98591.87;1798810;78;23434;-67
2022/01/06 10:16:18;;;;;;;3.27;2.05;;;;;;;-1.55;92.95;98613.13;1747828;79;21044;-66
2022/01/06 10:19:15;;;;;;;2.75;1.40;;;;;;;-1.46;92.75;98619.38;1758451;80;20993;-69
2022/01/06 10:21:58;;;;;;;2.50;1.30;;;;;;;-1.35;92.87;98618.76;1757374;80;21032;-69
2022/01/06 10:24:46;;;;;;;2.00;1.47;;;;;;;-1.42;92.24;98625.71;1748906;80;21060;-68
2022/01/06 10:27:17;;;;;;;1.95;1.30;;;;;;;-1.43;92.28;98633.41;1711091;81;20977;-68
2022/01/06 10:29:50;;;;;;;1.72;1.20;;;;;;;-1.50;92.00;98631.83;1709813;81;21503;-69
2022/01/06 10:32:22;;;;;;;2.37;1.37;;;;;;;-1.64;91.89;98636.72;1711397;81;21170;-69
2022/01/06 10:34:52;;;;;;;1.87;1.22;;;;;;;-1.61;92.41;98639.67;1707687;81;21083;-69
2022/01/06 10:37:27;;;;;;;1.82;1.10;;;;;;;-1.72;92.31;98638.55;1709924;81;20958;-68
2022/01/06 10:39:58;;;;;;;2.52;1.30;;;;;;;-1.76;92.67;98638.20;1707226;82;21013;-69
2022/01/06 10:42:32;;;;;;;1.82;1.10;;;;;;;-1.74;92.85;98645.40;1710916;81;21105;-69
2022/01/06 10:45:09;;;;;;;1.12;0.95;;;;;;;-1.63;93.64;98643.52;1709138;81;21267;-68
2022/01/06 10:47:45;;;;;;;1.10;0.80;;;;;;;-1.44;93.51;98648.37;1709925;81;20959;-68
2022/01/06 10:50:38;;;;;;;2.05;1.15;;;;;;;-1.33;93.27;98661.84;1709706;81;20963;-68
2022/01/06 10:53:13;;;;;;;1.72;1.00;;;;;;;-1.34;92.69;98661.45;1709478;81;21879;-69
2022/01/06 10:55:46;;;;;;;2.27;1.35;;;;;;;-1.37;92.75;98664.05;1708886;81;20993;-69
2022/01/06 10:58:20;;;;;;;1.80;1.20;;;;;;;-1.49;92.18;98661.67;1709549;82;21035;-69
2022/01/06 11:01:03;;;;;;;1.45;1.00;;;;;;;-1.55;92.49;98661.77;1707565;81;21001;-68
2022/01/06 11:03:33;;;;;;;1.82;1.22;;;;;;;-1.72;91.82;98678.22;1708483;83;21032;-68
2022/01/06 11:06:05;;;;;;;1.80;1.07;;;;;;;-1.73;92.49;98686.78;1709552;81;21056;-68
2022/01/06 11:08:40;;;;;;;2.05;1.10;;;;;;;-1.72;92.65;98688.45;1705912;81;20942;-68
2022/01/06 11:11:27;;;;;;;1.62;1.12;;;;;;;-1.73;92.48;98697.02;1710967;81;21578;-68
2022/01/06 11:16:56;;;;;;;2.08;1.07;;;;;;;-1.62;92.80;98690.03;1777468;80;23966;-67
2022/01/06 11:19:28;;;;;;;3.20;1.00;;;;;;;-1.67;92.67;98697.36;1737661;80;21537;-65
2022/01/06 11:22:00;;;;;;;1.62;1.00;;;;;;;-1.66;92.52;98702.88;1750412;80;21755;-67
2022/01/06 11:24:28;;;;;;;1.90;1.25;;;;;;;-1.63;92.64;98704.95;1749746;81;20999;-69
2022/01/06 11:27:11;;;;;;;2.42;1.32;;;;;;;-1.61;92.45;98712.19;1744553;81;20907;-69
2022/01/06 11:29:42;;;;;;;2.17;1.27;;;;;;;-1.54;92.64;98713.37;1750991;80;21032;-70
2022/01/06 11:32:21;;;;;;;3.35;1.30;;;;;;;-1.54;92.27;98713.37;1741305;81;21646;-70
2022/01/06 11:35:04;;;;;;;5.33;1.77;;;;;;;-1.54;92.38;98717.20;1746186;81;21050;-72
2022/01/06 11:37:52;;;;;;;3.98;1.52;;;;;;;-1.49;92.57;98726.95;1746089;80;21552;-70
2022/01/06 11:40:34;;;;;;;8.00;1.50;;;;;;;-1.48;92.20;98732.50;1732701;81;21005;-68
2022/01/06 11:43:01;;;;;;;2.55;1.50;;;;;;;-1.64;90.84;98746.78;1731577;81;21011;-70
2022/01/06 11:45:28;;;;;;;1.77;1.03;;;;;;;-1.71;91.51;98749.03;1738008;81;21093;-70
2022/01/06 11:48:08;;;;;;;3.90;1.90;;;;;;;-1.79;90.98;98755.96;1738630;82;21883;-70
2022/01/06 11:50:41;;;;;;;1.82;1.10;;;;;;;-1.83;90.96;98764.53;1732334;82;21089;-70
2022/01/06 11:53:09;;;;;;;2.52;1.50;;;;;;;-1.82;90.54;98772.60;1737962;81;21015;-70
2022/01/06 11:55:42;;;;;;;;;;;;;;;-1.89;90.34;98764.61;1745822;81;21003;-70
2022/01/06 11:58:19;;;;;;;2.52;1.35;;;;;;;-1.88;90.07;98780.36;1738050;81;20451;-69
2022/01/06 12:01:08;;;;;;;3.08;1.65;;;;;;;-1.90;90.37;98787.23;1751600;81;21104;-70
2022/01/06 12:03:39;;;;;;;3.40;1.70;;;;;;;-1.90;90.60;98785.95;1733702;81;20991;-71